Time;durP1;ratioP1;P1;durP2;ratioP2;P2;SDS_P1;SDS_P2;PMS_P1;PMS_P2;Temp;Humidity;BMP_temperature;BMP_pressure;BME280_temperature;BME280_humidity;BME280_pressure;Samples;Min_cycle;Max_cycle;Signal;HPM_P1;HPM_P2
2023/06/05 00:02:24;;;;;;;4.80;3.90;;;16.10;67.20;;;18.80;46.88;102296.72;5055556;28;20290;-66
2023/06/05 00:04:51;;;;;;;6.03;3.40;;;16.00;67.10;;;18.77;47.60;102297.13;5055739;28;20213;-66
2023/06/05 00:07:18;;;;;;;5.90;3.90;;;16.00;67.70;;;18.76;47.58;102303.47;5040518;28;20205;-67
2023/06/05 00:09:45;;;;;;;5.67;3.30;;;16.00;67.80;;;18.74;47.44;102299.34;5036444;28;20191;-67
2023/06/05 00:12:12;;;;;;;6.47;4.07;;;15.90;67.60;;;18.69;47.49;102294.56;5056252;28;20307;-66
2023/06/05 00:14:42;;;;;;;6.37;3.97;;;15.90;67.70;;;18.64;47.56;102296.97;5048203;28;20272;-65
2023/06/05 00:17:09;;;;;;;6.33;2.70;;;15.90;67.90;;;18.63;47.96;102295.34;5036383;28;20214;-64
2023/06/05 00:19:36;;;;;;;5.23;3.90;;;15.80;68.00;;;18.65;47.90;102293.31;5035697;28;20563;-64
2023/06/05 00:22:04;;;;;;;4.77;3.20;;;15.80;67.90;;;18.71;47.94;102291.69;5036132;28;20273;-66
2023/06/05 00:24:31;;;;;;;5.77;2.77;;;15.90;68.30;;;18.76;47.88;102299.97;5053031;28;20209;-65
2023/06/05 00:26:58;;;;;;;3.97;3.03;;;16.00;68.20;;;18.82;47.67;102297.38;5055757;28;20560;-64
2023/06/05 00:29:25;;;;;;;5.63;3.40;;;16.00;68.10;;;18.82;47.52;102289.38;5055649;28;20249;-65
2023/06/05 00:31:53;;;;;;;8.53;3.43;;;16.00;67.80;;;18.82;47.56;102294.72;5055975;28;20253;-64
2023/06/05 00:34:20;;;;;;;6.93;3.53;;;16.00;68.00;;;18.78;48.01;102293.44;5054961;28;20213;-65
2023/06/05 00:36:50;;;;;;;3.87;3.23;;;16.00;68.00;;;18.73;47.95;102290.50;5049341;28;20596;-65
2023/06/05 00:39:20;;;;;;;5.77;4.00;;;15.90;68.30;;;18.69;47.81;102289.22;5035646;28;20278;-65
2023/06/05 00:41:47;;;;;;;5.70;3.23;;;15.90;68.20;;;18.65;48.09;102287.13;5051854;28;20228;-65
2023/06/05 00:44:15;;;;;;;5.10;3.17;;;15.90;68.60;;;18.64;48.17;102294.31;5055294;28;20280;-66
2023/06/05 00:46:42;;;;;;;4.27;3.10;;;15.80;68.60;;;18.61;48.10;102292.00;5054523;28;20276;-65
2023/06/05 00:49:11;;;;;;;5.93;3.47;;;15.80;68.50;;;18.60;48.17;102289.53;5055616;28;20202;-65
2023/06/05 00:51:43;;;;;;;4.80;3.40;;;15.80;68.60;;;18.57;48.34;102290.75;5055436;28;20326;-64
2023/06/05 00:54:13;;;;;;;5.20;2.83;;;15.80;68.60;;;18.56;48.55;102286.44;5054880;28;20651;-65
2023/06/05 00:56:42;;;;;;;5.17;3.27;;;15.80;68.80;;;18.58;48.36;102287.06;5055132;28;20206;-65
2023/06/05 00:59:10;;;;;;;3.93;3.00;;;15.80;68.80;;;18.60;48.21;102290.38;5055115;28;20277;-65
2023/06/05 01:01:37;;;;;;;4.33;3.27;;;15.80;68.60;;;18.59;48.16;102285.25;5054541;28;20216;-65
2023/06/05 01:04:05;;;;;;;4.23;3.23;;;15.80;68.70;;;18.57;48.17;102282.75;5047381;28;20243;-66
2023/06/05 01:06:38;;;;;;;3.60;3.20;;;15.80;68.70;;;18.54;48.42;102280.44;5055222;28;20273;-65
2023/06/05 01:09:05;;;;;;;4.30;2.73;;;15.80;69.00;;;18.54;48.53;102285.78;5055297;28;20591;-65
2023/06/05 01:11:40;;;;;;;8.70;3.67;;;15.80;68.80;;;18.53;48.33;102283.31;5054387;28;20209;-65
2023/06/05 01:14:16;;;;;;;6.10;3.50;;;15.80;69.10;;;18.50;48.37;102284.50;5052949;28;20272;-63
2023/06/05 01:16:47;;;;;;;6.60;4.50;;;15.70;68.90;;;18.48;48.24;102275.03;5055207;28;20212;-66
2023/06/05 01:19:16;;;;;;;6.80;3.57;;;15.70;68.90;;;18.44;48.40;102271.91;5055282;28;20197;-65
2023/06/05 01:21:44;;;;;;;5.13;3.07;;;15.60;69.20;;;18.40;48.68;102267.94;5054665;28;20269;-66
2023/06/05 01:24:15;;;;;;;6.20;3.30;;;15.70;69.30;;;18.41;48.51;102274.94;5053621;28;20198;-65
2023/06/05 01:27:03;;;;;;;5.13;3.80;;;15.60;69.30;;;18.37;48.62;102276.34;5054800;28;20764;-65
2023/06/05 01:29:52;;;;;;;6.67;3.77;;;15.60;69.60;;;18.35;48.73;102270.34;5053173;28;20651;-65
2023/06/05 01:32:31;;;;;;;5.63;4.00;;;15.50;69.60;;;18.28;48.58;102269.44;5053866;28;20294;-65
2023/06/05 01:34:59;;;;;;;4.93;3.63;;;15.50;69.90;;;18.23;48.88;102267.34;5034148;28;20221;-66
2023/06/05 01:37:36;;;;;;;5.33;3.90;;;15.40;69.90;;;18.20;49.10;102266.91;5034558;28;20218;-66
2023/06/05 01:40:07;;;;;;;5.00;3.63;;;15.40;69.90;;;18.15;48.97;102263.97;5035709;28;20198;-67
2023/06/05 01:42:35;;;;;;;6.03;4.20;;;15.40;70.40;;;18.12;49.04;102259.84;5054480;28;20289;-66
2023/06/05 01:45:04;;;;;;;4.23;3.67;;;15.30;70.30;;;18.11;49.24;102268.03;5054128;28;20669;-67
2023/06/05 01:47:32;;;;;;;6.93;4.17;;;15.30;70.50;;;18.09;49.22;102254.88;5041931;28;20214;-67
2023/06/05 01:50:00;;;;;;;5.60;3.77;;;15.30;70.50;;;18.07;49.34;102250.75;5045709;28;20621;-66
2023/06/05 01:52:27;;;;;;;4.70;3.93;;;15.30;70.70;;;18.04;49.31;102256.47;5054413;28;20240;-65
2023/06/05 01:54:54;;;;;;;7.47;4.17;;;15.30;70.60;;;18.02;49.60;102248.63;5053992;28;20240;-66
2023/06/05 01:57:23;;;;;;;4.83;3.50;;;15.20;70.80;;;18.01;49.50;102251.50;5054513;28;20272;-66
2023/06/05 01:59:50;;;;;;;4.13;3.70;;;15.20;71.00;;;17.98;49.83;102251.84;5054544;28;20194;-66
2023/06/05 02:02:18;;;;;;;5.37;3.50;;;15.20;71.10;;;17.97;49.59;102260.88;5053927;28;20222;-66
2023/06/05 02:04:47;;;;;;;5.47;4.17;;;15.20;71.10;;;17.95;49.79;102252.22;5039477;28;20302;-67
2023/06/05 02:07:16;;;;;;;8.77;4.23;;;15.10;71.30;;;17.91;49.77;102246.44;5033886;28;20277;-69
2023/06/05 02:09:44;;;;;;;5.47;4.07;;;15.10;71.20;;;17.89;49.68;102250.31;5034763;28;20594;-66
2023/06/05 02:12:13;;;;;;;4.00;3.70;;;15.10;71.30;;;17.85;50.08;102244.50;5053810;28;20245;-66
2023/06/05 02:14:44;;;;;;;5.87;4.30;;;15.10;71.50;;;17.85;49.98;102246.38;5045928;28;20287;-66
2023/06/05 02:17:13;;;;;;;5.90;5.30;;;15.00;71.60;;;17.83;50.13;102243.06;5034010;28;20270;-66
2023/06/05 02:19:40;;;;;;;5.10;4.60;;;15.00;71.60;;;17.83;50.11;102248.41;5033761;28;20218;-66
2023/06/05 02:22:07;;;;;;;7.40;4.37;;;15.00;71.70;;;17.81;50.01;102239.75;5034474;28;20199;-65
2023/06/05 02:24:35;;;;;;;4.70;3.77;;;15.00;71.70;;;17.81;50.01;102239.75;5033478;28;20214;-65
2023/06/05 02:27:02;;;;;;;4.73;4.13;;;15.00;71.90;;;17.81;50.14;102235.25;5052664;28;20198;-65
2023/06/05 02:29:30;;;;;;;5.13;4.50;;;15.00;71.90;;;17.82;50.08;102228.09;5045534;28;20617;-66
2023/06/05 02:31:59;;;;;;;6.07;4.53;;;15.00;72.00;;;17.82;49.98;102228.09;5033655;28;20568;-65
2023/06/05 02:34:26;;;;;;;7.73;4.07;;;15.00;72.00;;;17.79;49.93;102236.44;5033607;28;20224;-66
2023/06/05 02:36:53;;;;;;;4.73;4.27;;;15.00;72.00;;;17.75;50.42;102235.16;5034627;28;20289;-64
2023/06/05 02:39:20;;;;;;;5.07;4.10;;;14.90;72.00;;;17.71;50.31;102236.56;5033662;28;20301;-67
2023/06/05 02:41:48;;;;;;;5.03;4.50;;;14.90;72.00;;;17.65;50.29;102231.94;5049395;28;20201;-65
2023/06/05 02:44:15;;;;;;;5.03;4.27;;;14.80;72.90;;;17.62;50.51;102230.47;5053291;28;20261;-65
2023/06/05 02:46:42;;;;;;;7.13;4.80;;;14.80;72.20;;;17.57;50.54;102228.38;5037957;28;20232;-66
2023/06/05 02:49:10;;;;;;;6.93;4.33;;;14.80;72.50;;;17.54;50.51;102220.75;5033629;28;20195;-65
2023/06/05 02:51:37;;;;;;;6.10;4.90;;;14.70;72.80;;;17.52;50.89;102213.94;5033552;28;20289;-65
2023/06/05 02:54:04;;;;;;;6.87;5.20;;;14.70;72.80;;;17.49;50.66;102214.31;5033296;28;20186;-65
2023/06/05 02:56:32;;;;;;;5.20;4.70;;;14.70;72.80;;;17.46;51.03;102225.31;5047774;28;20611;-65
2023/06/05 02:59:02;;;;;;;6.17;4.27;;;14.70;72.90;;;17.44;50.93;102222.00;5051472;28;20201;-65
2023/06/05 03:01:34;;;;;;;5.20;4.23;;;14.60;73.20;;;17.46;51.57;102218.16;5053571;28;20202;-65
2023/06/05 03:04:02;;;;;;;6.77;4.93;;;14.70;73.70;;;17.52;51.26;102220.09;5052542;28;20194;-65
2023/06/05 03:06:33;;;;;;;4.83;4.37;;;14.70;73.40;;;17.58;51.31;102219.38;5053167;28;20220;-66
2023/06/05 03:09:00;;;;;;;4.63;4.20;;;14.70;73.30;;;17.65;51.10;102221.28;5052294;28;20777;-66
2023/06/05 03:11:27;;;;;;;4.33;3.70;;;14.80;73.40;;;17.71;50.79;102213.38;5052933;28;20248;-65
2023/06/05 03:13:55;;;;;;;6.70;3.90;;;14.90;73.10;;;17.76;50.89;102216.31;5051102;28;20221;-65
2023/06/05 03:16:23;;;;;;;4.67;4.20;;;14.90;73.50;;;17.82;50.82;102220.09;5033066;28;20195;-63
2023/06/05 03:18:50;;;;;;;6.37;4.10;;;15.00;72.70;;;17.86;50.62;102216.03;5033368;28;20198;-65
2023/06/05 03:21:17;;;;;;;5.03;3.67;;;15.00;72.80;;;17.93;50.68;102217.78;5033408;28;20248;-65
2023/06/05 03:23:46;;;;;;;5.23;4.60;;;15.10;72.40;;;18.01;50.53;102216.84;5032788;28;20252;-66
2023/06/05 03:26:13;;;;;;;5.93;4.10;;;15.20;72.20;;;18.05;50.14;102215.47;5034743;28;20598;-65
2023/06/05 03:28:41;;;;;;;4.73;3.83;;;15.20;72.00;;;18.08;50.05;102223.09;5036776;28;20191;-65
2023/06/05 03:31:10;;;;;;;4.53;4.10;;;15.30;71.90;;;18.10;49.87;102208.56;5037180;28;20240;-65
2023/06/05 03:33:37;;;;;;;6.10;5.50;;;15.30;71.60;;;18.11;49.83;102214.72;5036688;28;20218;-64
2023/06/05 03:36:05;;;;;;;5.93;5.23;;;15.30;71.40;;;18.07;49.67;102208.09;5035415;28;20206;-65
2023/06/05 03:38:32;;;;;;;6.47;5.03;;;15.30;71.50;;;18.00;49.76;102210.69;5054303;28;20550;-64
2023/06/05 03:41:00;;;;;;;6.60;5.40;;;15.20;71.40;;;17.96;49.63;102211.25;5056528;28;20317;-63
2023/06/05 03:43:27;;;;;;;6.47;5.37;;;15.10;71.40;;;17.87;49.99;102207.06;5036358;28;20671;-66
2023/06/05 03:45:54;;;;;;;6.33;5.10;;;15.10;71.70;;;17.82;50.07;102209.44;5036423;28;20659;-66
2023/06/05 03:48:21;;;;;;;5.63;4.23;;;15.00;71.90;;;17.79;50.43;102212.47;5036470;28;20281;-66
2023/06/05 03:50:51;;;;;;;6.27;4.10;;;15.00;72.40;;;17.79;50.76;102207.16;5036853;28;20190;-66
2023/06/05 03:53:18;;;;;;;4.53;4.13;;;15.00;72.70;;;17.80;50.80;102206.16;5036134;28;20215;-65
2023/06/05 03:55:46;;;;;;;4.37;3.97;;;15.00;72.70;;;17.83;50.53;102208.44;5044817;28;20269;-65
2023/06/05 03:58:16;;;;;;;6.30;4.83;;;15.00;72.60;;;17.85;50.35;102209.09;5056070;28;20647;-64
2023/06/05 04:00:44;;;;;;;5.40;4.83;;;15.00;72.50;;;17.89;50.64;102210.34;5055656;28;20282;-64
2023/06/05 04:03:12;;;;;;;8.50;6.33;;;15.00;72.70;;;17.93;50.47;102214.28;5055298;28;20681;-66
2023/06/05 04:05:40;;;;;;;7.60;6.17;;;15.10;72.20;;;17.91;49.94;102208.31;5055241;28;20868;-66
2023/06/05 04:08:09;;;;;;;6.03;5.43;;;15.10;72.00;;;17.88;50.27;102219.34;5055979;28;20651;-66
2023/06/05 04:10:37;;;;;;;6.13;5.53;;;15.00;72.30;;;17.87;49.95;102218.53;5056097;28;20271;-65
2023/06/05 04:13:04;;;;;;;6.97;5.60;;;15.00;72.10;;;17.83;50.49;102211.91;5055952;28;20259;-66
2023/06/05 04:15:33;;;;;;;10.70;6.33;;;15.00;72.40;;;17.81;50.31;102213.94;5042126;28;20551;-65
2023/06/05 04:18:01;;;;;;;5.67;5.07;;;15.00;72.50;;;17.76;50.35;102216.31;5036493;28;20520;-66
2023/06/05 04:20:28;;;;;;;9.20;6.30;;;14.90;72.60;;;17.72;50.60;102209.72;5044274;28;20655;-65
2023/06/05 04:22:55;;;;;;;7.27;6.33;;;14.90;72.70;;;17.69;50.46;102217.25;5040924;28;20209;-68
2023/06/05 04:25:22;;;;;;;7.80;7.07;;;14.80;72.80;;;17.67;50.71;102213.94;5042121;28;20226;-65
2023/06/05 04:27:51;;;;;;;8.90;7.70;;;14.80;73.20;;;17.65;50.89;102224.78;5055905;28;20233;-66
2023/06/05 04:30:19;;;;;;;9.10;5.80;;;14.80;73.30;;;17.66;50.63;102220.31;5055931;28;20281;-67
2023/06/05 04:32:54;;;;;;;5.20;4.70;;;14.80;73.50;;;17.64;51.02;102222.31;5055882;28;20317;-64
2023/06/05 04:35:22;;;;;;;5.17;4.67;;;14.80;73.70;;;17.66;51.29;102221.13;5043306;28;20241;-64
2023/06/05 04:37:50;;;;;;;4.63;4.23;;;14.80;73.80;;;17.75;51.28;102213.84;5038991;28;20223;-66
2023/06/05 04:40:20;;;;;;;5.30;4.80;;;14.90;74.20;;;17.88;51.15;102208.69;5054506;28;20303;-67
2023/06/05 04:42:47;;;;;;;5.23;4.73;;;15.00;73.90;;;17.97;50.79;102210.25;5055366;28;20198;-67
2023/06/05 04:45:16;;;;;;;5.53;4.70;;;15.10;73.60;;;18.02;50.83;102210.50;5055538;28;20210;-66
2023/06/05 04:47:43;;;;;;;5.57;5.07;;;15.10;73.30;;;18.09;50.45;102212.22;5055479;28;20225;-65
2023/06/05 04:50:24;;;;;;;5.97;4.43;;;15.20;73.20;;;18.15;50.86;102206.16;5042361;28;20233;-66
2023/06/05 04:52:53;;;;;;;5.27;4.77;;;15.30;73.00;;;18.26;50.32;102211.00;5035592;28;20194;-65
2023/06/05 04:55:20;;;;;;;5.40;4.73;;;15.40;73.00;;;18.34;50.24;102203.91;5039717;28;20225;-64
2023/06/05 04:57:48;;;;;;;6.80;5.23;;;15.40;72.70;;;18.42;50.08;102206.44;5055349;28;20730;-65
2023/06/05 05:00:15;;;;;;;7.57;5.27;;;15.50;72.50;;;18.47;49.92;102204.88;5054650;28;20496;-66
2023/06/05 05:02:43;;;;;;;7.07;5.00;;;15.60;72.30;;;18.52;49.79;102209.66;5054661;28;20728;-66
2023/06/05 05:05:13;;;;;;;6.63;5.03;;;15.60;72.00;;;18.53;49.55;102203.31;5054728;28;20677;-66
2023/06/05 05:07:42;;;;;;;7.23;4.90;;;15.70;71.70;;;18.55;49.62;102206.59;5053433;28;20201;-66
2023/06/05 05:10:10;;;;;;;5.90;5.37;;;15.70;71.50;;;18.56;49.49;102202.94;5051594;28;20606;-65
2023/06/05 05:12:38;;;;;;;5.53;4.77;;;15.70;71.40;;;18.60;49.48;102199.69;5035128;28;20328;-65
2023/06/05 05:15:06;;;;;;;6.10;4.47;;;15.70;71.30;;;18.64;49.43;102195.63;5040538;28;20214;-66
2023/06/05 05:17:33;;;;;;;7.63;5.80;;;15.80;71.30;;;18.70;49.37;102204.69;5040027;28;20197;-65
2023/06/05 05:20:00;;;;;;;7.60;4.47;;;15.90;71.20;;;18.73;49.04;102207.00;5054491;28;20201;-65
2023/06/05 05:22:27;;;;;;;5.80;4.57;;;15.90;71.10;;;18.76;49.07;102210.09;5054346;28;20190;-65
2023/06/05 05:24:56;;;;;;;5.30;4.30;;;15.90;71.00;;;18.81;49.10;102210.34;5053935;28;20368;-66
2023/06/05 05:27:24;;;;;;;6.07;5.00;;;16.00;71.10;;;18.88;49.05;102208.56;5054430;28;20194;-66
2023/06/05 05:29:51;;;;;;;6.43;4.40;;;16.00;71.20;;;18.96;49.03;102212.94;5053321;28;20298;-66
2023/06/05 05:32:18;;;;;;;5.87;5.27;;;16.00;71.10;;;19.05;48.91;102208.25;5045752;28;20667;-66
2023/06/05 05:34:46;;;;;;;7.97;5.90;;;16.10;70.90;;;19.11;48.67;102212.84;5043126;28;20213;-66
2023/06/05 05:37:13;;;;;;;7.73;5.93;;;16.20;70.90;;;19.14;48.52;102213.25;5053842;28;20608;-67
2023/06/05 05:39:40;;;;;;;11.00;6.00;;;16.20;70.90;;;19.14;48.54;102218.59;5053905;28;20765;-65
2023/06/05 05:42:09;;;;;;;9.43;6.57;;;16.20;70.80;;;19.14;48.37;102215.09;5053824;28;20255;-67
2023/06/05 05:44:36;;;;;;;7.87;6.40;;;16.20;70.80;;;19.10;48.46;102217.34;5053950;28;20213;-67
2023/06/05 05:47:04;;;;;;;7.27;5.00;;;16.20;70.80;;;19.08;48.87;102219.41;5053449;28;20205;-67
2023/06/05 05:49:31;;;;;;;7.50;5.53;;;16.10;71.00;;;19.09;48.95;102220.22;5052748;28;20190;-66
2023/06/05 05:51:58;;;;;;;5.77;5.00;;;16.10;71.10;;;19.13;49.10;102211.63;5053973;28;20255;-66
2023/06/05 05:54:27;;;;;;;6.27;4.90;;;16.20;71.20;;;19.23;48.85;102216.63;5052964;28;20256;-65
2023/06/05 05:56:54;;;;;;;10.37;6.60;;;16.30;71.40;;;19.32;48.82;102226.97;5053680;28;20214;-68
2023/06/05 05:59:22;;;;;;;9.00;7.33;;;16.30;71.10;;;19.40;48.41;102212.66;5053537;28;20224;-66
2023/06/05 06:01:49;;;;;;;10.30;9.20;;;16.40;71.10;;;19.47;48.15;102213.50;5049606;28;20582;-65
2023/06/05 06:04:17;;;;;;;8.03;6.90;;;16.40;71.00;;;19.56;48.30;102213.16;5053028;28;20271;-68
2023/06/05 06:06:52;;;;;;;6.47;5.03;;;16.50;70.80;;;19.62;48.25;102216.91;5047320;28;20218;-67
2023/06/05 06:09:19;;;;;;;6.10;5.00;;;16.60;70.50;;;19.67;48.03;102219.81;5033448;28;20244;-65
2023/06/05 06:11:46;;;;;;;8.10;6.13;;;16.70;70.30;;;19.75;47.73;102219.66;5050298;28;20202;-66
2023/06/05 06:14:14;;;;;;;7.70;4.93;;;16.80;70.20;;;19.83;47.67;102211.44;5048560;28;20210;-65
2023/06/05 06:16:43;;;;;;;8.30;5.07;;;16.80;70.20;;;19.88;47.85;102211.69;5052236;28;20253;-64
2023/06/05 06:19:14;;;;;;;5.57;5.10;;;16.90;70.10;;;19.95;47.28;102219.72;5051876;28;20194;-67
2023/06/05 06:21:41;;;;;;;6.40;5.00;;;17.00;69.70;;;19.97;47.28;102217.66;5051793;28;20192;-65
2023/06/05 06:24:08;;;;;;;5.63;4.67;;;17.00;69.50;;;20.02;47.22;102218.72;5053129;28;20190;-66
2023/06/05 06:26:38;;;;;;;6.33;5.07;;;17.10;69.50;;;20.08;47.53;102217.94;5053234;28;20198;-66
2023/06/05 06:29:05;;;;;;;9.00;5.60;;;17.10;69.50;;;20.16;47.09;102220.41;5050076;28;20229;-65
2023/06/05 06:31:32;;;;;;;6.83;5.57;;;17.10;69.70;;;20.20;47.57;102223.53;5047115;28;20193;-66
2023/06/05 06:34:01;;;;;;;8.03;5.60;;;17.20;69.90;;;20.28;47.25;102225.22;5051917;28;20651;-66
2023/06/05 06:36:28;;;;;;;8.83;5.70;;;17.20;70.00;;;20.32;47.40;102227.28;5052979;28;20247;-66
2023/06/05 06:38:55;;;;;;;11.67;5.20;;;17.20;70.20;;;20.35;47.56;102223.41;5052002;28;20189;-68
2023/06/05 06:41:23;;;;;;;6.33;5.03;;;17.20;70.30;;;20.39;47.19;102227.31;5051728;28;20552;-67
2023/06/05 06:43:50;;;;;;;8.23;6.17;;;17.30;70.10;;;20.42;47.50;102221.56;5052566;28;20200;-66
2023/06/05 06:46:17;;;;;;;7.27;5.20;;;17.40;70.10;;;20.48;47.16;102234.13;5052600;28;20214;-65
2023/06/05 06:48:44;;;;;;;5.50;5.00;;;17.40;69.90;;;20.57;47.26;102227.53;5052841;28;20639;-65
2023/06/05 06:51:13;;;;;;;13.50;11.37;;;17.50;70.10;;;20.68;47.66;102229.63;5051318;28;20292;-66
2023/06/05 06:53:41;;;;;;;20.80;16.07;;;17.60;70.10;;;20.80;47.25;102230.69;5053380;28;20594;-66
2023/06/05 06:56:08;;;;;;;17.27;12.50;;;17.70;70.00;;;20.91;46.88;102224.69;5049341;28;20243;-66
2023/06/05 06:58:36;;;;;;;7.07;6.00;;;17.80;69.90;;;21.03;47.12;102227.56;5052533;28;20261;-66
2023/06/05 07:01:03;;;;;;;8.03;6.67;;;17.90;69.70;;;21.13;46.99;102228.84;5056182;28;20611;-65
2023/06/05 07:03:30;;;;;;;8.27;5.97;;;18.00;69.60;;;21.20;46.61;102235.03;5054487;28;20201;-66
2023/06/05 07:05:57;;;;;;;5.87;5.27;;;18.00;69.20;;;21.26;46.39;102228.81;5056779;28;20712;-67
2023/06/05 07:08:26;;;;;;;6.30;5.40;;;18.10;69.10;;;21.35;46.42;102232.94;5056672;28;20190;-65
2023/06/05 07:10:56;;;;;;;8.47;5.60;;;18.20;68.80;;;21.46;45.75;102236.84;5056127;28;20190;-66
2023/06/05 07:13:23;;;;;;;9.33;7.30;;;18.30;68.70;;;21.58;46.02;102233.28;5056418;28;20222;-66
2023/06/05 07:15:52;;;;;;;9.20;8.07;;;18.40;68.60;;;21.67;45.34;102230.38;5039398;28;20218;-66
2023/06/05 07:18:19;;;;;;;8.10;6.70;;;18.50;68.50;;;21.72;45.50;102230.56;5036967;28;20190;-64
2023/06/05 07:20:46;;;;;;;7.00;6.30;;;18.50;68.20;;;21.78;45.46;102233.22;5036781;28;20603;-66
2023/06/05 07:23:14;;;;;;;10.50;8.07;;;18.60;68.10;;;21.86;45.38;102229.53;5037661;28;20183;-63
2023/06/05 07:25:43;;;;;;;8.27;7.37;;;18.60;67.80;;;21.93;44.83;102230.31;5056338;28;20221;-65
2023/06/05 07:28:13;;;;;;;9.83;6.33;;;18.70;67.70;;;21.98;44.88;102230.50;5056276;28;20257;-65
2023/06/05 07:30:42;;;;;;;6.47;5.67;;;18.80;67.40;;;22.04;45.00;102226.97;5056548;28;20603;-65
2023/06/05 07:33:10;;;;;;;5.47;4.93;;;18.90;67.10;;;22.12;44.76;102224.88;5055505;28;20782;-65
2023/06/05 07:35:54;;;;;;;6.03;5.30;;;19.00;66.90;;;22.24;44.92;102228.53;5056117;28;20206;-64
2023/06/05 07:38:21;;;;;;;7.33;4.93;;;19.10;66.80;;;22.36;44.13;102225.97;5048379;28;20569;-66
2023/06/05 07:40:50;;;;;;;5.63;5.13;;;19.20;66.50;;;22.46;44.07;102228.19;5044285;28;20201;-66
2023/06/05 07:43:17;;;;;;;5.90;4.47;;;19.30;66.10;;;22.54;44.15;102228.75;5039275;28;20292;-66
2023/06/05 07:45:44;;;;;;;5.63;4.87;;;19.40;65.80;;;22.64;44.07;102221.06;5055342;28;20307;-66
2023/06/05 07:48:12;;;;;;;5.00;4.47;;;19.50;65.60;;;22.78;43.55;102219.09;5055933;28;20202;-66
2023/06/05 07:50:39;;;;;;;5.03;4.30;;;19.60;65.50;;;22.90;43.69;102223.56;5056398;28;20228;-66
2023/06/05 07:53:06;;;;;;;5.87;5.27;;;19.70;65.20;;;23.00;43.07;102216.88;5054172;28;20275;-67
2023/06/05 07:55:33;;;;;;;9.13;6.73;;;19.80;64.80;;;23.07;43.02;102217.63;5056050;28;20264;-66
2023/06/05 07:58:01;;;;;;;8.67;6.40;;;19.90;64.40;;;23.17;42.96;102226.00;5055569;28;20274;-67
2023/06/05 08:00:28;;;;;;;7.10;5.73;;;20.00;64.00;;;23.24;42.79;102219.53;5039621;28;20202;-66
2023/06/05 08:02:57;;;;;;;7.47;5.43;;;20.10;64.00;;;23.31;42.73;102225.66;5037977;28;20622;-64
2023/06/05 08:05:24;;;;;;;5.97;4.93;;;20.20;63.80;;;23.39;42.56;102227.28;5055895;28;20216;-65
2023/06/05 08:07:51;;;;;;;6.40;5.30;;;20.30;63.90;;;23.48;42.47;102220.56;5056337;28;20562;-64
2023/06/05 08:10:19;;;;;;;9.07;5.00;;;20.30;63.70;;;23.60;42.30;102218.78;5056252;28;20193;-65
2023/06/05 08:12:45;;;;;;;6.97;4.83;;;20.40;63.50;;;24.09;41.82;102217.78;5055994;28;20182;-66
2023/06/05 08:15:14;;;;;;;7.23;4.60;;;20.60;63.30;;;24.99;40.79;102218.50;5043127;28;20219;-65
2023/06/05 08:17:41;;;;;;;6.20;5.60;;;20.80;62.90;;;26.15;38.81;102217.28;5036632;28;20587;-66
2023/06/05 08:20:10;;;;;;;6.83;5.10;;;21.30;62.60;;;27.37;36.50;102212.88;5036126;28;20650;-66
2023/06/05 08:22:40;;;;;;;5.57;4.47;;;21.80;61.10;;;28.67;34.97;102217.31;5053144;28;20198;-66
2023/06/05 08:25:08;;;;;;;6.93;4.53;;;22.50;60.80;;;29.84;32.91;102211.53;5055369;28;20248;-66
2023/06/05 08:27:35;;;;;;;5.23;3.87;;;23.30;58.80;;;30.95;31.46;102209.00;5056004;28;20650;-67
2023/06/05 08:30:03;;;;;;;6.63;4.47;;;24.10;57.40;;;31.90;29.08;102214.13;5054880;28;20194;-66
2023/06/05 08:32:32;;;;;;;8.47;5.70;;;24.90;53.50;;;32.80;28.59;102206.44;5037471;28;20281;-65
2023/06/05 08:34:59;;;;;;;4.97;4.03;;;25.60;52.10;;;33.35;26.82;102202.31;5054815;28;20285;-65
2023/06/05 08:37:28;;;;;;;17.20;6.07;;;26.20;48.60;;;33.90;26.20;102203.56;5035537;28;20555;-66
2023/06/05 08:39:58;;;;;;;9.77;4.60;;;26.70;48.90;;;34.54;24.63;102198.19;5035523;28;20601;-66
2023/06/05 08:42:28;;;;;;;9.63;5.23;;;27.30;46.20;;;35.24;24.55;102200.75;5056030;28;20256;-65
2023/06/05 08:44:55;;;;;;;5.30;4.67;;;27.80;45.30;;;35.90;24.02;102194.69;5056826;28;20241;-66
2023/06/05 08:47:35;;;;;;;8.43;5.03;;;28.30;43.10;;;36.38;23.31;102197.69;5056355;28;20262;-67
2023/06/05 08:50:05;;;;;;;5.77;4.30;;;28.80;41.80;;;36.41;21.73;102186.09;5058923;28;20190;-65
2023/06/05 08:52:37;;;;;;;5.40;4.90;;;29.00;39.80;;;36.64;22.43;102184.97;5059727;28;20216;-65
2023/06/05 08:55:05;;;;;;;4.97;4.53;;;29.30;38.90;;;36.97;21.90;102177.22;5060741;28;20222;-65
2023/06/05 08:57:36;;;;;;;5.57;4.10;;;29.60;38.80;;;37.40;21.63;102185.66;5059916;28;20198;-65
2023/06/05 09:00:10;;;;;;;6.97;4.07;;;29.90;38.10;;;37.97;20.87;102188.00;5061570;28;20194;-64
2023/06/05 09:02:47;;;;;;;5.90;3.65;;;30.20;37.40;;;38.51;20.72;102177.44;5062032;28;20193;-65
2023/06/05 09:05:14;;;;;;;13.07;7.05;;;30.60;37.20;;;39.16;19.78;102177.06;5059639;28;20231;-65
2023/06/05 09:07:41;;;;;;;6.20;5.60;;;31.00;36.40;;;39.66;18.92;102171.56;5061619;28;20280;-66
2023/06/05 09:10:23;;;;;;;6.93;4.32;;;31.40;35.10;;;40.26;18.21;102176.59;5062293;28;20224;-64
2023/06/05 09:12:55;;;;;;;5.55;4.43;;;31.80;34.10;;;40.72;17.95;102170.75;5063410;28;20273;-66
2023/06/05 09:15:24;;;;;;;5.82;5.05;;;32.20;34.00;;;41.01;16.90;102170.53;5048434;28;20265;-65
2023/06/05 09:18:08;;;;;;;6.40;4.68;;;32.40;31.70;;;40.84;17.70;102176.28;5050859;28;20190;-65
2023/06/05 09:20:38;;;;;;;6.10;4.57;;;32.60;31.30;;;40.91;17.78;102168.25;5038033;28;20281;-65
2023/06/05 09:23:26;;;;;;;3.80;3.45;;;32.70;31.70;;;41.26;17.29;102170.53;5032961;28;20294;-65
2023/06/05 09:25:58;;;;;;;4.38;3.70;;;33.00;30.40;;;41.59;16.49;102168.41;5042550;28;20256;-65
2023/06/05 09:28:26;;;;;;;4.55;3.58;;;33.20;30.00;;;41.79;16.00;102170.25;5053488;28;20220;-66
2023/06/05 09:30:56;;;;;;;3.50;3.20;;;33.50;28.90;;;41.69;15.99;102173.50;5053817;28;20689;-65
2023/06/05 09:33:27;;;;;;;5.45;4.05;;;33.60;29.10;;;41.73;16.23;102168.88;5052173;28;20264;-64
2023/06/05 09:36:10;;;;;;;5.32;4.63;;;33.80;29.10;;;41.95;16.25;102165.56;5053817;28;20225;-65
2023/06/05 09:38:40;;;;;;;5.55;4.53;;;34.00;28.80;;;42.22;15.96;102163.97;5053016;28;20190;-65
2023/06/05 09:41:08;;;;;;;8.23;7.38;;;34.00;28.70;;;42.37;16.02;102166.75;5053493;28;20201;-65
2023/06/05 09:43:43;;;;;;;7.95;6.53;;;34.20;28.80;;;42.56;15.63;102165.25;5089661;28;20573;-65
2023/06/05 09:46:12;;;;;;;5.70;4.90;;;34.20;28.30;;;42.64;15.50;102172.59;5070036;28;20213;-66
2023/06/05 09:48:43;;;;;;;4.50;4.10;;;34.30;28.40;;;42.43;15.68;102170.88;5069840;28;20213;-65
2023/06/05 09:51:13;;;;;;;7.28;5.45;;;34.20;28.20;;;42.47;15.69;102166.22;5056143;28;20195;-66
2023/06/05 09:53:43;;;;;;;12.00;9.88;;;34.30;28.20;;;42.68;15.62;102170.72;5049511;28;20273;-65
2023/06/05 09:56:14;;;;;;;6.70;5.47;;;34.50;28.10;;;43.01;15.04;102165.63;5061421;28;20732;-66
2023/06/05 09:58:46;;;;;;;6.18;4.10;;;34.70;27.60;;;43.46;15.02;102157.56;5068450;28;20645;-65
2023/06/05 10:01:17;;;;;;;4.57;3.75;;;34.90;27.70;;;43.87;14.38;102160.81;5069611;28;20241;-65
2023/06/05 10:03:50;;;;;;;8.15;5.10;;;35.10;27.30;;;44.27;14.18;102158.44;5068863;28;20275;-65
2023/06/05 10:06:23;;;;;;;4.93;4.20;;;35.40;27.30;;;44.40;14.28;102154.31;5068793;28;20623;-64
2023/06/05 10:08:52;;;;;;;5.85;3.53;;;35.60;26.90;;;44.29;14.28;102158.91;5069125;28;20189;-65
2023/06/05 10:11:22;;;;;;;4.53;3.72;;;35.70;26.30;;;44.23;13.85;102146.47;5056829;28;20280;-65
2023/06/05 10:13:51;;;;;;;6.55;4.35;;;35.80;25.50;;;44.12;14.32;102151.03;5047994;28;20190;-64
2023/06/05 10:16:19;;;;;;;5.25;4.53;;;35.80;26.00;;;44.07;14.49;102148.56;5061259;28;20307;-65
2023/06/05 10:18:56;;;;;;;5.47;4.97;;;35.70;26.10;;;44.24;14.37;102131.41;5069182;28;20579;-65
2023/06/05 10:21:25;;;;;;;4.68;3.92;;;35.90;26.00;;;44.10;13.87;102137.50;5069585;28;20181;-66